createdAt,value
2018-01-06T00:00:55.387Z,969.04
2018-01-06T00:02:05.380Z,969.01
2018-01-06T00:03:15.354Z,969.02
2018-01-06T00:04:25.162Z,968.96
2018-01-06T00:05:34.871Z,968.97
2018-01-06T00:06:44.583Z,968.96
2018-01-06T00:07:54.558Z,968.94
2018-01-06T00:09:04.538Z,968.97
2018-01-06T00:10:14.561Z,969
2018-01-06T00:11:24.538Z,969.06
2018-01-06T00:12:34.517Z,969.01
2018-01-06T00:13:44.229Z,969.03
2018-01-06T00:14:54.206Z,969.03
2018-01-06T00:16:03.919Z,969.05
2018-01-06T00:17:13.630Z,968.99
2018-01-06T00:18:23.349Z,969.05
2018-01-06T00:19:33.329Z,969.06
2018-01-06T00:20:43.038Z,969.06
2018-01-06T00:21:53.015Z,969.12
2018-01-06T00:23:02.459Z,969.12
2018-01-06T00:24:12.445Z,969.13
2018-01-06T00:25:22.158Z,969.14
2018-01-06T00:26:32.140Z,969.12
2018-01-06T00:27:42.118Z,969.15
2018-01-06T00:28:52.092Z,969.17
2018-01-06T00:30:02.077Z,969.18
2018-01-06T00:31:11.258Z,969.15
2018-01-06T00:32:21.242Z,969.2
2018-01-06T00:33:31.220Z,969.21
2018-01-06T00:34:40.933Z,969.23
2018-01-06T00:35:50.651Z,969.21
2018-01-06T00:37:00.633Z,969.24
2018-01-06T00:38:10.618Z,969.2
2018-01-06T00:39:20.600Z,969.21
2018-01-06T00:40:30.583Z,969.23
2018-01-06T00:41:40.299Z,969.19
2018-01-06T00:42:50.279Z,969.23
2018-01-06T00:43:59.992Z,969.17
2018-01-06T00:45:10.042Z,969.21
2018-01-06T00:46:20.026Z,969.28
2018-01-06T00:47:30.008Z,969.23
2018-01-06T00:48:39.457Z,969.26
2018-01-06T00:49:49.440Z,969.24
2018-01-06T00:50:59.158Z,969.25
2018-01-06T00:52:09.130Z,969.28
2018-01-06T00:53:19.109Z,969.24
2018-01-06T00:54:29.087Z,969.26
2018-01-06T00:55:38.800Z,969.24
2018-01-06T00:56:48.782Z,969.29
2018-01-06T00:57:58.590Z,969.27
2018-01-06T00:59:08.301Z,969.28
2018-01-06T01:00:18.282Z,969.3
2018-01-06T01:01:27.995Z,969.27
2018-01-06T01:02:37.720Z,969.33
2018-01-06T01:03:47.699Z,969.33
2018-01-06T01:04:57.676Z,969.32
2018-01-06T01:06:07.397Z,969.33
2018-01-06T01:07:16.842Z,969.33
2018-01-06T01:08:26.612Z,969.35
2018-01-06T01:09:36.328Z,969.32
2018-01-06T01:10:46.108Z,969.35
2018-01-06T01:11:56.088Z,969.38
2018-01-06T01:13:05.536Z,969.35
2018-01-06T01:14:15.245Z,969.4
2018-01-06T01:15:25.229Z,969.39
2018-01-06T01:16:35.225Z,969.41
2018-01-06T01:17:45.205Z,969.43
2018-01-06T01:18:54.963Z,969.45
2018-01-06T01:20:04.947Z,969.43
2018-01-06T01:21:14.933Z,969.44
2018-01-06T01:22:24.642Z,969.4
2018-01-06T01:23:34.404Z,969.42
2018-01-06T01:24:43.853Z,969.46
2018-01-06T01:25:53.570Z,969.47
2018-01-06T01:27:03.547Z,969.5
2018-01-06T01:28:13.264Z,969.53
2018-01-06T01:29:23.242Z,969.51
2018-01-06T01:30:32.690Z,969.56
2018-01-06T01:31:42.665Z,969.59
2018-01-06T01:32:52.644Z,969.56
2018-01-06T01:34:02.359Z,969.61
2018-01-06T01:35:12.079Z,969.62
2018-01-06T01:36:22.066Z,969.64
2018-01-06T01:37:31.788Z,969.62
2018-01-06T01:38:41.501Z,969.61
2018-01-06T01:39:51.480Z,969.65
2018-01-06T01:41:01.191Z,969.66
2018-01-06T01:42:11.173Z,969.67
2018-01-06T01:43:21.154Z,969.65
2018-01-06T01:44:30.869Z,969.65
2018-01-06T01:45:40.855Z,969.69
2018-01-06T01:46:50.568Z,969.71
2018-01-06T01:48:00.278Z,969.69
2018-01-06T01:49:09.995Z,969.71
2018-01-06T01:50:19.720Z,969.71
2018-01-06T01:51:29.704Z,969.72
2018-01-06T01:52:39.415Z,969.72
2018-01-06T01:53:49.399Z,969.74
2018-01-06T01:54:59.377Z,969.7
2018-01-06T01:56:09.355Z,969.73
2018-01-06T01:57:19.336Z,969.73
2018-01-06T01:58:29.325Z,969.71
2018-01-06T01:59:39.043Z,969.71
2018-01-06T02:00:49.024Z,969.7
2018-01-06T02:01:58.743Z,969.69
2018-01-06T02:03:08.459Z,969.69
2018-01-06T02:04:18.173Z,969.67
2018-01-06T02:05:27.887Z,969.69
2018-01-06T02:06:37.338Z,969.71
2018-01-06T02:07:47.323Z,969.74
2018-01-06T02:08:57.354Z,969.68
2018-01-06T02:10:07.074Z,969.74
2018-01-06T02:11:17.053Z,969.78
2018-01-06T02:12:27.031Z,969.77
2018-01-06T02:13:37.008Z,969.8
2018-01-06T02:14:46.985Z,969.76
2018-01-06T02:15:56.701Z,969.76
2018-01-06T02:17:06.421Z,969.79
2018-01-06T02:18:16.413Z,969.81
2018-01-06T02:19:26.390Z,969.76
2018-01-06T02:20:36.373Z,969.8
2018-01-06T02:21:46.090Z,969.81
2018-01-06T02:22:55.813Z,969.78
2018-01-06T02:24:05.791Z,969.78
2018-01-06T02:25:15.779Z,969.79
2018-01-06T02:26:25.809Z,969.8
2018-01-06T02:27:35.792Z,969.81
2018-01-06T02:28:45.768Z,969.87
2018-01-06T02:29:55.746Z,969.84
2018-01-06T02:31:05.495Z,969.84
2018-01-06T02:32:15.211Z,969.9
2018-01-06T02:33:25.192Z,969.84
2018-01-06T02:34:34.974Z,969.89
2018-01-06T02:35:44.698Z,969.89
2018-01-06T02:36:54.680Z,969.88
2018-01-06T02:38:04.148Z,969.87
2018-01-06T02:39:13.609Z,969.9
2018-01-06T02:40:23.378Z,969.97
2018-01-06T02:41:33.370Z,969.94
2018-01-06T02:42:43.352Z,969.91
2018-01-06T02:43:53.338Z,969.97
2018-01-06T02:45:03.326Z,969.96
2018-01-06T02:46:12.563Z,969.97
2018-01-06T02:47:22.283Z,969.98
2018-01-06T02:48:32.269Z,969.97
2018-01-06T02:49:42.250Z,970.02
2018-01-06T02:50:52.234Z,970.03
2018-01-06T02:52:02.222Z,970.1
2018-01-06T02:53:12.235Z,970.08
2018-01-06T02:54:22.221Z,970.1
2018-01-06T02:55:31.945Z,970.12
2018-01-06T02:56:41.652Z,970.08
2018-01-06T02:57:51.734Z,970.2
2018-01-06T02:59:01.737Z,970.18
2018-01-06T03:00:11.716Z,970.27
2018-01-06T03:01:21.698Z,970.21
2018-01-06T03:02:31.410Z,970.18
2018-01-06T03:03:41.390Z,970.26
2018-01-06T03:04:51.116Z,970.24
2018-01-06T03:06:01.100Z,970.25
2018-01-06T03:07:11.084Z,970.27
2018-01-06T03:08:21.071Z,970.29
2018-01-06T03:09:30.787Z,970.28
2018-01-06T03:10:40.769Z,970.32
2018-01-06T03:11:50.749Z,970.31
2018-01-06T03:13:00.723Z,970.29
2018-01-06T03:14:10.712Z,970.32
2018-01-06T03:15:20.694Z,970.31
2018-01-06T03:16:30.406Z,970.37
2018-01-06T03:17:40.384Z,970.37
2018-01-06T03:18:50.366Z,970.41
2018-01-06T03:20:00.342Z,970.42
2018-01-06T03:21:10.331Z,970.42
2018-01-06T03:22:20.321Z,970.42
2018-01-06T03:23:30.301Z,970.42
2018-01-06T03:24:40.282Z,970.38
2018-01-06T03:25:49.992Z,970.46
2018-01-06T03:27:00.072Z,970.45
2018-01-06T03:28:09.792Z,970.51
2018-01-06T03:29:19.781Z,970.5
2018-01-06T03:30:29.493Z,970.5
2018-01-06T03:31:39.496Z,970.51
2018-01-06T03:32:49.206Z,970.54
2018-01-06T03:33:59.196Z,970.55
2018-01-06T03:35:09.178Z,970.56
2018-01-06T03:36:19.154Z,970.57
2018-01-06T03:37:28.610Z,970.59
2018-01-06T03:38:38.323Z,970.62
2018-01-06T03:39:48.046Z,970.61
2018-01-06T03:40:58.026Z,970.62
2018-01-06T03:42:07.744Z,970.63
2018-01-06T03:43:17.729Z,970.68
2018-01-06T03:44:27.710Z,970.64
2018-01-06T03:45:37.422Z,970.64
2018-01-06T03:46:47.400Z,970.67
2018-01-06T03:47:57.117Z,970.65
2018-01-06T03:49:06.835Z,970.69
2018-01-06T03:50:16.811Z,970.75
2018-01-06T03:51:26.524Z,970.74
2018-01-06T03:52:36.247Z,970.77
2018-01-06T03:53:46.223Z,970.81
2018-01-06T03:54:56.200Z,970.8
2018-01-06T03:56:05.920Z,970.84
2018-01-06T03:57:15.908Z,970.85
2018-01-06T03:58:25.889Z,970.84
2018-01-06T03:59:35.604Z,970.86
2018-01-06T04:03:23.877Z,970.89
2018-01-06T04:04:33.865Z,970.86
2018-01-06T04:05:43.579Z,970.9
2018-01-06T04:06:53.293Z,970.92
2018-01-06T04:08:03.274Z,970.96
2018-01-06T04:09:13.305Z,970.92
2018-01-06T04:10:23.303Z,970.96
2018-01-06T04:11:33.285Z,970.97
2018-01-06T04:12:43.000Z,970.98
2018-01-06T04:13:52.984Z,970.99
2018-01-06T04:15:03.027Z,971.03
2018-01-06T04:16:12.752Z,971.02
2018-01-06T04:17:22.738Z,971.03
2018-01-06T04:18:32.453Z,971.06
2018-01-06T04:19:42.164Z,971.02
2018-01-06T04:20:52.142Z,971.1
2018-01-06T04:22:02.122Z,971.15
2018-01-06T04:23:12.105Z,971.11
2018-01-06T04:24:22.084Z,971.17
2018-01-06T04:25:31.562Z,971.16
2018-01-06T04:26:41.556Z,971.15
2018-01-06T04:27:51.531Z,971.21
2018-01-06T04:29:01.508Z,971.2
2018-01-06T04:30:11.491Z,971.21
2018-01-06T04:31:21.477Z,971.23
2018-01-06T04:32:31.198Z,971.26
2018-01-06T04:33:41.177Z,971.22
2018-01-06T04:34:51.165Z,971.26
2018-01-06T04:36:01.141Z,971.29
2018-01-06T04:37:10.856Z,971.28
2018-01-06T04:38:20.579Z,971.28
2018-01-06T04:39:30.559Z,971.25
2018-01-06T04:40:40.277Z,971.25
2018-01-06T04:41:50.262Z,971.3
2018-01-06T04:43:00.249Z,971.27
2018-01-06T04:44:09.969Z,971.31
2018-01-06T04:45:19.694Z,971.31
2018-01-06T04:46:29.414Z,971.32
2018-01-06T04:47:39.133Z,971.33
2018-01-06T04:48:49.115Z,971.35
2018-01-06T04:49:59.098Z,971.41
2018-01-06T04:51:09.083Z,971.39
2018-01-06T04:52:19.105Z,971.39
2018-01-06T04:53:28.818Z,971.4
2018-01-06T04:54:38.799Z,971.4
2018-01-06T04:55:48.776Z,971.47
2018-01-06T04:56:58.488Z,971.48
2018-01-06T04:58:08.468Z,971.45
2018-01-06T04:59:18.184Z,971.57
2018-01-06T05:00:27.898Z,971.5
2018-01-06T05:01:37.613Z,971.5
2018-01-06T05:02:47.596Z,971.47
2018-01-06T05:03:57.577Z,971.51
2018-01-06T05:05:07.561Z,971.51
2018-01-06T05:06:17.548Z,971.54
2018-01-06T05:07:27.530Z,971.57
2018-01-06T05:08:37.247Z,971.55
2018-01-06T05:09:47.224Z,971.55
2018-01-06T05:10:57.210Z,971.57
2018-01-06T05:12:07.206Z,971.56
2018-01-06T05:13:17.238Z,971.56
2018-01-06T05:14:27.215Z,971.58
2018-01-06T05:15:36.929Z,971.56
2018-01-06T05:16:46.971Z,971.61
2018-01-06T05:17:56.685Z,971.61
2018-01-06T05:19:06.669Z,971.61
2018-01-06T05:20:16.645Z,971.59
2018-01-06T05:21:26.632Z,971.62
2018-01-06T05:22:36.611Z,971.64
2018-01-06T05:23:46.596Z,971.68
2018-01-06T05:24:56.045Z,971.7
2018-01-06T05:26:05.762Z,971.68
2018-01-06T05:27:15.743Z,971.71
2018-01-06T05:28:25.724Z,971.7
2018-01-06T05:29:35.441Z,971.7
2018-01-06T05:30:45.426Z,971.78
2018-01-06T05:31:55.407Z,971.87
2018-01-06T05:33:05.392Z,971.75
2018-01-06T05:34:14.846Z,971.81
2018-01-06T05:35:24.558Z,971.91
2018-01-06T05:36:34.325Z,971.84
2018-01-06T05:37:44.039Z,971.9
2018-01-06T05:38:54.019Z,971.93
2018-01-06T05:40:03.999Z,971.92
2018-01-06T05:41:13.980Z,971.97
2018-01-06T05:42:23.958Z,971.99
2018-01-06T05:43:33.674Z,972.04
2018-01-06T05:44:43.653Z,972
2018-01-06T05:45:53.637Z,972.02
2018-01-06T05:47:03.624Z,972.05
2018-01-06T05:48:13.077Z,972.1
2018-01-06T05:49:22.789Z,972.11
2018-01-06T05:50:32.766Z,972.18
2018-01-06T05:51:42.484Z,972.15
2018-01-06T05:52:51.673Z,972.17
2018-01-06T05:54:01.121Z,972.14
2018-01-06T05:55:10.303Z,972.29
2018-01-06T05:56:19.484Z,972.26
2018-01-06T05:57:29.472Z,972.3
2018-01-06T05:58:39.188Z,972.32
2018-01-06T05:59:49.168Z,972.35
2018-01-06T06:00:59.145Z,972.33
2018-01-06T06:02:08.596Z,972.36
2018-01-06T06:03:18.311Z,972.35
2018-01-06T06:04:27.761Z,972.44
2018-01-06T06:05:37.797Z,972.44
2018-01-06T06:06:47.775Z,972.45
2018-01-06T06:07:57.768Z,972.5
2018-01-06T06:09:07.213Z,972.55
2018-01-06T06:10:16.662Z,972.53
2018-01-06T06:11:26.653Z,972.62
2018-01-06T06:12:36.367Z,972.57
2018-01-06T06:13:46.089Z,972.55
2018-01-06T06:14:55.547Z,972.61
2018-01-06T06:16:04.989Z,972.61
2018-01-06T06:17:14.438Z,972.66
2018-01-06T06:18:23.889Z,972.7
2018-01-06T06:19:33.877Z,972.69
2018-01-06T06:20:43.591Z,972.67
2018-01-06T06:21:52.770Z,972.69
2018-01-06T06:23:02.857Z,972.76
2018-01-06T06:24:12.577Z,972.67
2018-01-06T06:25:22.290Z,972.74
2018-01-06T06:26:32.270Z,972.73
2018-01-06T06:27:41.983Z,972.72
2018-01-06T06:28:51.165Z,972.79
2018-01-06T06:30:01.145Z,972.8
2018-01-06T06:31:10.860Z,972.72
2018-01-06T06:32:20.840Z,972.8
2018-01-06T06:33:30.816Z,972.87
2018-01-06T06:34:40.534Z,972.9
2018-01-06T06:35:50.245Z,972.91
2018-01-06T06:36:59.694Z,972.98
2018-01-06T06:38:09.677Z,972.93
2018-01-06T06:39:18.862Z,972.89
2018-01-06T06:40:28.314Z,973
2018-01-06T06:41:37.499Z,973.07
2018-01-06T06:42:46.943Z,973.11
2018-01-06T06:43:56.128Z,973.15
2018-01-06T06:45:05.843Z,973.19
2018-01-06T06:46:15.646Z,973.18
2018-01-06T06:47:25.362Z,973.2
2018-01-06T06:48:35.072Z,973.25
2018-01-06T06:49:44.250Z,973.26
2018-01-06T06:50:53.959Z,973.33
2018-01-06T06:52:03.940Z,973.28
2018-01-06T06:53:13.650Z,973.35
2018-01-06T06:54:23.364Z,973.28
2018-01-06T06:55:33.339Z,973.38
2018-01-06T06:56:43.056Z,973.41
2018-01-06T06:57:52.866Z,973.4
2018-01-06T06:59:02.849Z,973.38
2018-01-06T07:00:12.846Z,973.44
2018-01-06T07:01:22.823Z,973.46
2018-01-06T07:02:32.534Z,973.45
2018-01-06T07:03:41.712Z,973.41
2018-01-06T07:04:51.693Z,973.51
2018-01-06T07:06:01.677Z,973.51
2018-01-06T07:07:11.190Z,973.61
2018-01-06T07:08:20.643Z,973.58
2018-01-06T07:09:30.405Z,973.62
2018-01-06T07:10:40.117Z,973.67
2018-01-06T07:11:50.094Z,973.66
2018-01-06T07:12:59.542Z,973.64
2018-01-06T07:14:08.991Z,973.69
2018-01-06T07:15:18.222Z,973.66
2018-01-06T07:16:28.206Z,973.64
2018-01-06T07:17:37.919Z,973.71
2018-01-06T07:18:47.896Z,973.76
2018-01-06T07:19:57.880Z,973.8
2018-01-06T07:21:07.866Z,973.84
2018-01-06T07:22:17.581Z,973.85
2018-01-06T07:23:27.033Z,973.92
2018-01-06T07:24:37.011Z,973.9
2018-01-06T07:25:46.724Z,973.98
2018-01-06T07:26:56.703Z,973.94
2018-01-06T07:28:06.416Z,973.99
2018-01-06T07:29:16.458Z,973.88
2018-01-06T07:30:26.165Z,974.01
2018-01-06T07:31:35.348Z,974.02
2018-01-06T07:32:45.065Z,974
2018-01-06T07:33:55.053Z,974.01
2018-01-06T07:35:04.779Z,974.09
2018-01-06T07:36:14.232Z,974.01
2018-01-06T07:37:24.250Z,974.11
2018-01-06T07:38:33.703Z,974.18
2018-01-06T07:39:43.423Z,974.22
2018-01-06T07:40:52.876Z,974.23
2018-01-06T07:42:02.588Z,974.24
2018-01-06T07:43:12.578Z,974.29
2018-01-06T07:44:22.291Z,974.33
2018-01-06T07:45:32.008Z,974.37
2018-01-06T07:46:41.459Z,974.4
2018-01-06T07:47:50.376Z,974.44
2018-01-06T07:48:59.826Z,974.47
2018-01-06T07:50:09.537Z,974.47
2018-01-06T07:51:18.985Z,974.39
2018-01-06T07:52:28.964Z,974.55
2018-01-06T07:53:38.410Z,974.49
2018-01-06T07:54:48.411Z,974.48
2018-01-06T07:55:58.391Z,974.52
2018-01-06T07:57:08.119Z,974.52
2018-01-06T07:58:18.104Z,974.62
2018-01-06T07:59:27.553Z,974.6
2018-01-06T08:00:37.002Z,974.57
2018-01-06T08:01:46.976Z,974.57
2018-01-06T08:02:56.957Z,974.65
2018-01-06T08:04:06.943Z,974.65
2018-01-06T08:05:16.920Z,974.75
2018-01-06T08:06:26.640Z,974.76
2018-01-06T08:07:36.139Z,974.81
2018-01-06T08:08:45.811Z,974.7
2018-01-06T08:09:55.837Z,974.8
2018-01-06T08:11:05.550Z,974.82
2018-01-06T08:12:15.277Z,974.88
2018-01-06T08:13:24.726Z,974.95
2018-01-06T08:14:34.173Z,975.01
2018-01-06T08:15:43.622Z,974.98
2018-01-06T08:16:53.336Z,974.99
2018-01-06T08:18:02.790Z,975.01
2018-01-06T08:19:12.508Z,975.08
2018-01-06T08:20:22.232Z,975.09
2018-01-06T08:21:31.945Z,975.16
2018-01-06T08:22:41.128Z,975.18
2018-01-06T08:23:51.108Z,975.15
2018-01-06T08:25:00.568Z,975.14
2018-01-06T08:26:09.757Z,975.37
2018-01-06T08:27:19.738Z,975.33
2018-01-06T08:28:29.185Z,975.32
2018-01-06T08:29:38.366Z,975.35
2018-01-06T08:30:48.140Z,975.4
2018-01-06T08:31:57.325Z,975.43
2018-01-06T08:33:06.812Z,975.4
2018-01-06T08:34:16.293Z,975.49
2018-01-06T08:35:25.745Z,975.47
2018-01-06T08:36:34.932Z,975.47
2018-01-06T08:37:44.909Z,975.53
2018-01-06T08:38:54.888Z,975.45
2018-01-06T08:40:04.882Z,975.53
2018-01-06T08:41:14.891Z,975.55
2018-01-06T08:42:24.654Z,975.59
2018-01-06T08:43:34.630Z,975.62
2018-01-06T08:44:44.346Z,975.56
2018-01-06T08:45:53.794Z,975.66
2018-01-06T08:47:03.771Z,975.7
2018-01-06T08:48:13.499Z,975.66
2018-01-06T08:49:22.936Z,975.73
2018-01-06T08:50:32.384Z,975.73
2018-01-06T08:51:41.835Z,975.77
2018-01-06T08:52:51.280Z,975.85
2018-01-06T08:54:00.729Z,975.82
2018-01-06T08:55:10.712Z,975.79
2018-01-06T08:56:20.426Z,975.81
2018-01-06T08:57:30.141Z,975.8
2018-01-06T08:58:40.185Z,975.81
2018-01-06T08:59:49.970Z,975.77
2018-01-06T09:00:59.422Z,975.68
2018-01-06T09:02:09.146Z,975.79
2018-01-06T09:03:19.133Z,975.83
2018-01-06T09:04:29.114Z,975.75
2018-01-06T09:05:38.047Z,975.87
2018-01-06T09:06:48.033Z,975.83
2018-01-06T09:07:58.014Z,975.96
2018-01-06T09:09:07.728Z,975.99
2018-01-06T09:10:17.446Z,975.99
2018-01-06T09:11:27.429Z,975.96
2018-01-06T09:12:37.144Z,976.05
2018-01-06T09:13:46.600Z,976.07
2018-01-06T09:14:55.781Z,976.11
2018-01-06T09:16:05.233Z,976.1
2018-01-06T09:17:14.948Z,976.15
2018-01-06T09:18:24.665Z,976.12
2018-01-06T09:19:34.117Z,976.2
2018-01-06T09:20:44.092Z,976.25
2018-01-06T09:21:54.072Z,976.26
2018-01-06T09:23:04.062Z,976.3
2018-01-06T09:24:13.847Z,976.27
2018-01-06T09:25:23.300Z,976.37
2018-01-06T09:26:33.014Z,976.33
2018-01-06T09:27:42.196Z,976.44
2018-01-06T09:28:51.909Z,976.45
2018-01-06T09:30:01.927Z,976.43
2018-01-06T09:31:11.704Z,976.5
2018-01-06T09:32:21.161Z,976.56
2018-01-06T09:33:31.147Z,976.57
2018-01-06T09:34:40.860Z,976.57
2018-01-06T09:35:50.311Z,976.6
2018-01-06T09:37:00.291Z,976.48
2018-01-06T09:38:10.280Z,976.59
2018-01-06T09:39:19.729Z,976.63
2018-01-06T09:40:29.709Z,976.66
2018-01-06T09:41:39.432Z,976.64
2018-01-06T09:42:49.422Z,976.69
2018-01-06T09:43:59.418Z,976.76
2018-01-06T09:45:09.149Z,976.76
2018-01-06T09:46:18.600Z,976.78
2018-01-06T09:47:28.581Z,976.83
2018-01-06T09:48:38.299Z,976.83
2018-01-06T09:49:48.061Z,976.83
2018-01-06T09:50:58.049Z,976.96
2018-01-06T09:52:07.821Z,976.84
2018-01-06T09:53:17.278Z,976.84
2018-01-06T09:54:26.992Z,976.87
2018-01-06T09:55:36.176Z,976.9
2018-01-06T09:56:45.888Z,976.92
2018-01-06T09:57:55.873Z,976.86
2018-01-06T09:59:05.325Z,976.92
2018-01-06T10:00:14.544Z,976.97
2018-01-06T10:01:24.363Z,976.92
2018-01-06T10:02:34.355Z,976.96
2018-01-06T10:03:44.332Z,976.92
2018-01-06T10:04:53.780Z,976.94
2018-01-06T10:06:03.496Z,977.07
2018-01-06T10:07:12.944Z,976.95
2018-01-06T10:08:22.922Z,976.97
2018-01-06T10:09:32.641Z,976.97
2018-01-06T10:10:42.361Z,976.96
2018-01-06T10:11:52.340Z,977
2018-01-06T10:13:02.320Z,977.03
2018-01-06T10:14:12.305Z,977.07
2018-01-06T10:15:22.117Z,977.1
2018-01-06T10:16:32.097Z,977.1
2018-01-06T10:17:41.016Z,977.06
2018-01-06T10:18:50.730Z,977.11
2018-01-06T10:20:00.184Z,977.06
2018-01-06T10:21:09.909Z,977.16
2018-01-06T10:22:19.093Z,977.03
2018-01-06T10:23:28.804Z,977.08
2018-01-06T10:24:37.994Z,977.13
2018-01-06T10:25:47.711Z,977.13
2018-01-06T10:26:57.694Z,977.19
2018-01-06T10:28:07.680Z,977.14
2018-01-06T10:29:17.395Z,977.16
2018-01-06T10:30:27.382Z,977.2
2018-01-06T10:31:36.835Z,977.27
2018-01-06T10:32:46.330Z,977.16
2018-01-06T10:33:55.780Z,977.16
2018-01-06T10:35:05.234Z,977.2
2018-01-06T10:36:14.687Z,977.15
2018-01-06T10:37:24.136Z,977.15
2018-01-06T10:38:33.852Z,977.19
2018-01-06T10:39:43.835Z,977.23
2018-01-06T10:40:53.821Z,977.24
2018-01-06T10:42:03.799Z,977.27
2018-01-06T10:43:13.249Z,977.33
2018-01-06T10:44:23.229Z,977.37
2018-01-06T10:45:32.682Z,977.44
2018-01-06T10:46:42.663Z,977.45
2018-01-06T10:47:52.110Z,977.42
2018-01-06T10:49:01.605Z,977.47
2018-01-06T10:50:11.381Z,977.48
2018-01-06T10:51:20.836Z,977.46
2018-01-06T10:52:30.557Z,977.52
2018-01-06T10:53:40.533Z,977.57
2018-01-06T10:54:50.525Z,977.56
2018-01-06T10:56:00.075Z,977.6
2018-01-06T10:57:10.068Z,977.68
2018-01-06T10:58:19.533Z,977.63
2018-01-06T10:59:29.515Z,977.64
2018-01-06T11:00:39.546Z,977.69
2018-01-06T11:01:49.525Z,977.71
2018-01-06T11:02:59.507Z,977.71
2018-01-06T11:04:09.499Z,977.7
2018-01-06T11:05:19.224Z,977.76
2018-01-06T11:06:28.945Z,977.69
2018-01-06T11:07:38.426Z,977.67
2018-01-06T11:08:48.413Z,977.68
2018-01-06T11:09:58.392Z,977.7
2018-01-06T11:11:07.842Z,977.68
2018-01-06T11:12:17.829Z,977.7
2018-01-06T11:13:27.812Z,977.73
2018-01-06T11:14:37.275Z,977.68
2018-01-06T11:15:47.254Z,977.75
2018-01-06T11:16:57.238Z,977.65
2018-01-06T11:18:06.966Z,977.73
2018-01-06T11:19:16.681Z,977.7
2018-01-06T11:20:26.429Z,977.78
2018-01-06T11:21:36.447Z,977.65
2018-01-06T11:22:46.433Z,977.72
2018-01-06T11:23:56.152Z,977.71
2018-01-06T11:25:06.133Z,977.68
2018-01-06T11:26:16.118Z,977.76
2018-01-06T11:27:26.159Z,977.73
2018-01-06T11:28:35.875Z,977.74
2018-01-06T11:29:45.913Z,977.66
2018-01-06T11:30:55.901Z,977.75
2018-01-06T11:32:05.885Z,977.67
2018-01-06T11:33:15.608Z,977.79
2018-01-06T11:34:25.601Z,977.84
2018-01-06T11:35:35.584Z,977.82
2018-01-06T11:36:45.300Z,977.84
2018-01-06T11:37:55.282Z,977.89
2018-01-06T11:39:05.271Z,977.85
2018-01-06T11:40:14.989Z,977.81
2018-01-06T11:41:24.973Z,977.86
2018-01-06T11:42:34.953Z,977.78
2018-01-06T11:43:44.939Z,977.83
2018-01-06T11:44:54.922Z,977.85
2018-01-06T11:46:04.908Z,977.96
2018-01-06T11:47:14.897Z,977.92
2018-01-06T11:48:24.621Z,977.98
2018-01-06T11:49:34.606Z,977.98
2018-01-06T11:50:44.590Z,977.98
2018-01-06T11:51:54.578Z,977.95
2018-01-06T11:53:04.561Z,978.03
2018-01-06T11:54:14.330Z,977.95
2018-01-06T11:55:24.049Z,978.03
2018-01-06T11:56:34.030Z,978.03
2018-01-06T11:57:44.011Z,978.14
2018-01-06T11:58:53.724Z,978.07
2018-01-06T12:00:03.496Z,978.11
2018-01-06T12:01:12.948Z,978.15
2018-01-06T12:02:22.673Z,978.21
2018-01-06T12:03:32.394Z,978.24
2018-01-06T12:04:42.115Z,978.19
2018-01-06T12:05:52.107Z,978.22
2018-01-06T12:07:02.092Z,978.23
2018-01-06T12:08:12.098Z,978.27
2018-01-06T12:09:21.816Z,978.26
2018-01-06T12:10:31.537Z,978.31
2018-01-06T12:11:41.575Z,978.27
2018-01-06T12:12:51.558Z,978.28
2018-01-06T12:14:01.561Z,978.27
2018-01-06T12:15:11.555Z,978.33
2018-01-06T12:16:21.277Z,978.3
2018-01-06T12:17:30.994Z,978.35
2018-01-06T12:18:40.717Z,978.4
2018-01-06T12:19:50.437Z,978.42
2018-01-06T12:21:00.452Z,978.41
2018-01-06T12:22:10.440Z,978.45
2018-01-06T12:23:20.158Z,978.5
2018-01-06T12:24:30.144Z,978.44
2018-01-06T12:25:40.130Z,978.41
2018-01-06T12:26:50.116Z,978.37
2018-01-06T12:28:00.097Z,978.43
2018-01-06T12:29:09.820Z,978.33
2018-01-06T12:30:19.272Z,978.36
2018-01-06T12:31:28.458Z,978.42
2018-01-06T12:32:37.911Z,978.42
2018-01-06T12:33:47.382Z,978.42
2018-01-06T12:34:57.200Z,978.41
2018-01-06T12:36:06.970Z,978.48
2018-01-06T12:37:16.953Z,978.53
2018-01-06T12:38:26.937Z,978.58
2018-01-06T12:39:36.126Z,978.5
2018-01-06T12:40:45.845Z,978.48
2018-01-06T12:41:55.828Z,978.49
2018-01-06T12:43:05.557Z,978.52
2018-01-06T12:44:15.016Z,978.59
2018-01-06T12:45:25.028Z,978.6
2018-01-06T12:46:35.015Z,978.56
2018-01-06T12:47:45.043Z,978.63
2018-01-06T12:48:55.032Z,978.68
2018-01-06T12:50:04.751Z,978.77
2018-01-06T12:51:14.736Z,978.77
2018-01-06T12:52:24.190Z,978.84
2018-01-06T12:53:33.926Z,978.87
2018-01-06T12:54:43.643Z,978.85
2018-01-06T12:55:53.624Z,978.97
2018-01-06T12:57:03.345Z,978.94
2018-01-06T12:58:13.342Z,979.02
2018-01-06T12:59:23.070Z,978.91
2018-01-06T13:00:32.528Z,978.94
2018-01-06T13:01:42.244Z,978.97
2018-01-06T13:02:52.230Z,978.98
2018-01-06T13:04:02.212Z,979
2018-01-06T13:05:11.940Z,978.98
2018-01-06T13:06:21.656Z,979.05
2018-01-06T13:07:31.648Z,979.04
2018-01-06T13:08:41.627Z,979.08
2018-01-06T13:09:51.621Z,979.1
2018-01-06T13:11:01.609Z,979.14
2018-01-06T13:12:11.595Z,979.17
2018-01-06T13:13:21.576Z,979.19
2018-01-06T13:14:31.176Z,979.25
2018-01-06T13:15:41.218Z,979.24
2018-01-06T13:16:50.937Z,979.26
2018-01-06T13:18:00.657Z,979.25
2018-01-06T13:19:10.694Z,979.23
2018-01-06T13:20:20.144Z,979.2
2018-01-06T13:21:29.860Z,979.19
2018-01-06T13:22:39.588Z,979.2
2018-01-06T13:23:49.303Z,979.23
2018-01-06T13:24:59.285Z,979.25
2018-01-06T13:26:09.272Z,979.24
2018-01-06T13:27:19.258Z,979.2
2018-01-06T13:28:28.978Z,979.19
2018-01-06T13:29:38.743Z,979.29
2018-01-06T13:30:48.476Z,979.35
2018-01-06T13:31:58.454Z,979.32
2018-01-06T13:33:08.186Z,979.31
2018-01-06T13:34:18.167Z,979.32
2018-01-06T13:35:28.148Z,979.32
2018-01-06T13:36:37.604Z,979.33
2018-01-06T13:37:47.322Z,979.31
2018-01-06T13:38:57.303Z,979.4
2018-01-06T13:40:07.315Z,979.4
2018-01-06T13:41:17.297Z,979.46
2018-01-06T13:42:27.278Z,979.4
2018-01-06T13:43:37.001Z,979.48
2018-01-06T13:44:46.983Z,979.52
2018-01-06T13:45:56.703Z,979.52
2018-01-06T13:47:06.690Z,979.52
2018-01-06T13:48:16.679Z,979.51
2018-01-06T13:49:26.132Z,979.52
2018-01-06T13:50:35.849Z,979.61
2018-01-06T13:51:45.832Z,979.61
2018-01-06T13:52:55.809Z,979.67
2018-01-06T13:54:05.786Z,979.7
2018-01-06T13:55:15.506Z,979.74
2018-01-06T13:56:25.060Z,979.71
2018-01-06T13:57:34.827Z,979.71
2018-01-06T13:58:44.541Z,979.72
2018-01-06T13:59:54.519Z,979.72
2018-01-06T14:01:03.966Z,979.75
2018-01-06T14:02:13.953Z,979.77
2018-01-06T14:03:23.932Z,979.78
2018-01-06T14:04:33.909Z,979.8
2018-01-06T14:05:43.628Z,979.8
2018-01-06T14:06:53.604Z,979.83
2018-01-06T14:08:03.586Z,979.86
2018-01-06T14:09:13.568Z,979.93
2018-01-06T14:10:23.547Z,979.91
2018-01-06T14:11:33.004Z,979.92
2018-01-06T14:12:42.724Z,979.92
2018-01-06T14:13:52.799Z,979.96
2018-01-06T14:15:02.513Z,980.02
2018-01-06T14:16:12.496Z,980
2018-01-06T14:17:22.475Z,980.06
2018-01-06T14:18:32.188Z,980.05
2018-01-06T14:19:41.958Z,980
2018-01-06T14:20:51.940Z,980
2018-01-06T14:22:01.925Z,980.02
2018-01-06T14:23:11.917Z,980.04
2018-01-06T14:24:21.629Z,980.1
2018-01-06T14:25:31.350Z,980.06
2018-01-06T14:26:41.325Z,980.12
2018-01-06T14:27:51.301Z,980.13
2018-01-06T14:29:01.350Z,980.15
2018-01-06T14:30:11.054Z,980.1
2018-01-06T14:31:20.817Z,980.11
2018-01-06T14:32:30.535Z,980.1
2018-01-06T14:33:40.518Z,980.11
2018-01-06T14:34:50.497Z,980.08
2018-01-06T14:36:00.472Z,980.13
2018-01-06T14:37:10.488Z,980.14